Time;durP1;ratioP1;P1;durP2;ratioP2;P2;SDS_P1;SDS_P2;PMS_P1;PMS_P2;Temp;Humidity;BMP_temperature;BMP_pressure;BME280_temperature;BME280_humidity;BME280_pressure;Samples;Min_cycle;Max_cycle;Signal;HPM_P1;HPM_P2
2024/02/17 00:00:44;;;;;;;14.40;5.90;;;;;;;-1.94;69.92;100621.05;79404;1297;3011550;-70
2024/02/17 00:03:12;;;;;;;14.90;7.30;;;;;;;-1.99;69.91;100616.54;78200;1303;3051257;-68
2024/02/17 00:05:39;;;;;;;16.30;6.90;;;;;;;-1.98;69.95;100622.04;79370;1303;3013760;-69
2024/02/17 00:08:06;;;;;;;13.70;6.10;;;;;;;-1.96;69.77;100625.16;79426;1301;3012017;-71
2024/02/17 00:10:34;;;;;;;14.50;5.90;;;;;;;-2.01;69.89;100627.34;78162;1302;3027029;-68
2024/02/17 00:13:00;;;;;;;14.90;6.70;;;;;;;-2.06;69.87;100624.71;79436;1298;3019151;-69
2024/02/17 00:15:28;;;;;;;16.50;6.10;;;;;;;-2.00;69.75;100621.69;79361;1301;3011741;-69
2024/02/17 00:17:56;;;;;;;13.30;5.80;;;;;;;-2.06;69.25;100625.75;78153;1302;3026043;-67
2024/02/17 00:20:22;;;;;;;12.60;6.30;;;;;;;-2.11;69.55;100626.21;79395;1303;3018585;-72
2024/02/17 00:22:49;;;;;;;17.70;6.50;;;;;;;-2.11;69.39;100627.23;79353;1303;3011776;-67
2024/02/17 00:25:17;;;;;;;14.20;6.10;;;;;;;-2.14;69.70;100624.30;78222;1297;3026087;-70
2024/02/17 00:27:44;;;;;;;15.40;6.40;;;;;;;-2.28;69.98;100628.27;79435;1302;3018556;-67
2024/02/17 00:30:11;;;;;;;18.00;6.80;;;;;;;-2.31;70.34;100627.38;79493;1297;3011658;-69
2024/02/17 00:32:39;;;;;;;11.50;6.00;;;;;;;-2.32;70.48;100622.73;78196;1302;3051969;-68
2024/02/17 00:35:06;;;;;;;15.90;6.90;;;;;;;-2.26;70.52;100624.00;79400;1300;3018981;-74
2024/02/17 00:37:33;;;;;;;12.90;6.70;;;;;;;-2.31;70.88;100626.19;79366;1301;3011515;-72
2024/02/17 00:40:03;;;;;;;12.40;5.80;;;;;;;-2.33;70.78;100630.63;78111;1300;3026182;-71
2024/02/17 00:42:30;;;;;;;16.50;6.50;;;;;;;-2.20;70.25;100636.42;79477;1297;3011812;-72
2024/02/17 00:44:57;;;;;;;11.50;5.90;;;;;;;-2.18;69.93;100634.91;79477;1300;3011808;-71
2024/02/17 00:47:25;;;;;;;16.60;6.20;;;;;;;-2.19;69.75;100628.55;78136;1296;3053040;-73
2024/02/17 00:49:52;;;;;;;19.20;6.10;;;;;;;-2.18;69.91;100626.14;79468;1300;3018457;-70
2024/02/17 00:52:18;;;;;;;16.40;5.90;;;;;;;-2.25;69.45;100621.44;79421;1297;3012993;-70
2024/02/17 00:54:46;;;;;;;13.20;5.90;;;;;;;-2.31;69.50;100624.81;78233;1300;3028921;-69
2024/02/17 00:57:13;;;;;;;14.90;5.80;;;;;;;-2.38;69.83;100622.86;79508;1301;3013353;-71
2024/02/17 00:59:39;;;;;;;15.10;6.40;;;;;;;-2.49;70.26;100625.30;79475;1299;3011707;-71
2024/02/17 01:02:08;;;;;;;13.50;6.40;;;;;;;-2.40;70.39;100622.84;78225;1300;3026215;-68
2024/02/17 01:04:34;;;;;;;14.30;6.20;;;;;;;-2.44;70.43;100616.27;79654;1300;3013056;-69
2024/02/17 01:07:01;;;;;;;13.20;5.30;;;;;;;-2.41;70.50;100618.71;79420;1300;3011327;-68
2024/02/17 01:09:29;;;;;;;12.30;6.40;;;;;;;-2.42;70.26;100615.95;78255;1300;3028522;-72
2024/02/17 01:11:58;;;;;;;12.60;5.90;;;;;;;-2.46;70.41;100618.30;79396;1296;3011444;-69
2024/02/17 01:14:25;;;;;;;15.20;6.00;;;;;;;-2.50;70.58;100616.55;79466;1296;3012832;-68
2024/02/17 01:16:54;;;;;;;10.00;5.70;;;;;;;-2.58;70.93;100610.63;78207;1300;3052331;-68
2024/02/17 01:19:21;;;;;;;14.70;5.40;;;;;;;-2.55;70.86;100608.77;79501;1298;3018358;-67
2024/02/17 01:21:47;;;;;;;13.60;5.80;;;;;;;-2.57;70.75;100607.38;79416;1300;3013300;-71
2024/02/17 01:24:15;;;;;;;13.70;5.50;;;;;;;-2.56;71.00;100607.55;78209;1300;3025144;-68
2024/02/17 01:26:42;;;;;;;13.90;5.60;;;;;;;-2.48;70.83;100608.15;79493;1300;3013145;-71
2024/02/17 01:29:08;;;;;;;15.20;5.60;;;;;;;-2.49;70.73;100611.75;79430;1300;3013467;-71
2024/02/17 01:31:36;;;;;;;12.30;5.00;;;;;;;-2.59;70.83;100609.58;78196;1300;3025678;-72
2024/02/17 01:34:03;;;;;;;15.70;5.70;;;;;;;-2.61;70.72;100610.08;79461;1300;3013194;-68
2024/02/17 01:36:29;;;;;;;12.90;5.50;;;;;;;-2.63;70.99;100610.05;79537;1300;3011843;-66
2024/02/17 01:38:57;;;;;;;12.30;5.00;;;;;;;-2.62;70.88;100610.73;78165;1300;3025568;-71
2024/02/17 01:41:23;;;;;;;11.70;5.90;;;;;;;-2.72;71.21;100610.80;79484;1298;3014222;-71
2024/02/17 01:43:50;;;;;;;10.80;5.40;;;;;;;-2.68;71.43;100612.58;79470;1300;3011787;-67
2024/02/17 01:46:18;;;;;;;15.00;5.80;;;;;;;-2.68;71.53;100614.63;78227;1300;3026077;-71
2024/02/17 01:48:44;;;;;;;16.30;6.20;;;;;;;-2.62;71.45;100609.54;79424;1300;3013225;-68
2024/02/17 01:51:11;;;;;;;13.60;6.00;;;;;;;-2.62;71.65;100608.00;79426;1300;3011658;-69
2024/02/17 01:53:40;;;;;;;13.90;5.60;;;;;;;-2.67;71.89;100605.71;78256;1303;3026701;-67
2024/02/17 01:56:07;;;;;;;11.60;5.60;;;;;;;-2.61;72.07;100604.41;79494;1301;3013735;-69
2024/02/17 01:58:34;;;;;;;17.10;6.10;;;;;;;-2.58;71.63;100604.61;79472;1296;3013385;-72
2024/02/17 02:01:02;;;;;;;11.10;5.00;;;;;;;-2.59;71.26;100602.73;78281;1300;3052035;-70
2024/02/17 02:03:29;;;;;;;15.40;6.70;;;;;;;-2.60;71.15;100607.01;79491;1300;3014910;-71
2024/02/17 02:05:58;;;;;;;14.40;5.60;;;;;;;-2.54;71.15;100604.48;79427;1296;3013471;-72
2024/02/17 02:08:26;;;;;;;13.90;5.90;;;;;;;-2.50;71.03;100609.01;78394;1300;3050228;-70
2024/02/17 02:10:55;;;;;;;13.90;5.50;;;;;;;-2.47;70.98;100605.95;79865;1301;3018330;-69
2024/02/17 02:13:21;;;;;;;16.10;6.10;;;;;;;-2.44;71.13;100609.73;79475;1300;3012796;-69
2024/02/17 02:15:49;;;;;;;13.30;6.10;;;;;;;-2.48;70.94;100610.05;78190;1300;3052096;-69
2024/02/17 02:18:16;;;;;;;14.10;6.30;;;;;;;-2.40;70.82;100613.56;79457;1300;3019147;-70
2024/02/17 02:20:43;;;;;;;17.20;7.10;;;;;;;-2.31;70.55;100620.69;79643;1300;3012234;-71
2024/02/17 02:23:11;;;;;;;17.40;6.20;;;;;;;-2.32;69.91;100618.96;78435;1299;3024539;-68
2024/02/17 02:25:37;;;;;;;16.60;6.70;;;;;;;-2.39;69.93;100620.95;79620;1300;3013152;-70
2024/02/17 02:28:04;;;;;;;14.70;6.30;;;;;;;-2.34;70.04;100617.06;79311;1298;3013454;-73
2024/02/17 02:30:32;;;;;;;20.80;6.30;;;;;;;-2.27;69.73;100615.41;78292;1300;3029336;-70
2024/02/17 02:32:59;;;;;;;15.00;6.00;;;;;;;-2.32;69.52;100609.53;79624;1300;3018753;-70
2024/02/17 02:35:26;;;;;;;12.00;4.90;;;;;;;-2.32;69.48;100612.61;79489;1300;3012748;-69
2024/02/17 02:37:54;;;;;;;13.20;6.00;;;;;;;-2.25;70.06;100614.39;78437;1297;3025811;-71
2024/02/17 02:40:21;;;;;;;16.70;6.40;;;;;;;-2.24;69.82;100612.70;79558;1300;3013180;-71
2024/02/17 02:42:48;;;;;;;13.20;6.10;;;;;;;-2.18;69.73;100613.96;79281;1297;3011438;-68
2024/02/17 02:45:16;;;;;;;19.80;6.60;;;;;;;-2.23;69.64;100609.11;78274;1300;3051800;-70
2024/02/17 02:47:44;;;;;;;16.30;6.20;;;;;;;-2.19;69.78;100610.35;79465;1299;3013348;-71
2024/02/17 02:50:10;;;;;;;16.20;6.20;;;;;;;-2.22;69.68;100607.40;79418;1296;3012872;-68
2024/02/17 02:52:38;;;;;;;13.60;6.80;;;;;;;-2.13;69.32;100607.66;78128;1296;3028384;-70
2024/02/17 02:55:05;;;;;;;12.40;6.40;;;;;;;-2.24;69.30;100607.72;79475;1301;3014512;-73
2024/02/17 02:57:32;;;;;;;16.00;6.70;;;;;;;-2.34;69.95;100605.91;79373;1300;3011526;-74
2024/02/17 03:00:01;;;;;;;16.00;6.80;;;;;;;-2.27;69.97;100607.34;78209;1300;3027285;-69
2024/02/17 03:02:28;;;;;;;15.10;6.70;;;;;;;-2.16;70.12;100604.18;79446;1300;3014697;-70
2024/02/17 03:04:55;;;;;;;14.10;7.00;;;;;;;-2.17;69.86;100609.84;79382;1296;3011664;-74
2024/02/17 03:07:22;;;;;;;16.40;8.00;;;;;;;-2.33;70.20;100609.36;78211;1297;3048237;-69
2024/02/17 03:09:49;;;;;;;14.50;6.50;;;;;;;-2.33;70.81;100608.84;79418;1300;3013060;-72
2024/02/17 03:12:15;;;;;;;18.50;6.70;;;;;;;-2.18;70.36;100612.41;79423;1300;3012215;-71
2024/02/17 03:14:43;;;;;;;17.20;6.50;;;;;;;-2.31;70.55;100612.27;78206;1303;3028602;-73
2024/02/17 03:17:10;;;;;;;11.40;5.80;;;;;;;-2.25;70.71;100611.31;79415;1301;3013654;-70
2024/02/17 03:19:36;;;;;;;16.40;5.80;;;;;;;-2.28;70.30;100609.39;79437;1296;3011723;-69
2024/02/17 03:22:05;;;;;;;16.50;6.30;;;;;;;-2.27;70.05;100607.52;78232;1296;3028573;-69
2024/02/17 03:24:32;;;;;;;17.40;6.70;;;;;;;-2.35;70.36;100608.47;79502;1297;3013387;-69
2024/02/17 03:26:59;;;;;;;14.70;6.40;;;;;;;-2.39;70.28;100606.37;79410;1300;3011716;-71
2024/02/17 03:29:26;;;;;;;15.40;5.70;;;;;;;-2.46;70.42;100605.77;78230;1300;3050702;-70
2024/02/17 03:31:54;;;;;;;13.90;5.90;;;;;;;-2.54;70.83;100609.81;79480;1300;3012914;-73
2024/02/17 03:34:22;;;;;;;19.50;5.90;;;;;;;-2.60;70.73;100611.63;79496;1300;3011890;-72
2024/02/17 03:36:50;;;;;;;11.40;5.90;;;;;;;-2.61;70.65;100611.44;78256;1300;3049208;-68
2024/02/17 03:39:19;;;;;;;13.90;6.40;;;;;;;-2.67;70.59;100608.63;79501;1300;3012985;-71
2024/02/17 03:41:46;;;;;;;14.70;5.80;;;;;;;-2.71;70.22;100609.27;79724;1301;3011595;-73
2024/02/17 03:44:15;;;;;;;21.60;6.20;;;;;;;-2.79;70.16;100612.60;78336;1301;3053795;-69
2024/02/17 03:46:44;;;;;;;16.80;6.20;;;;;;;-2.81;70.40;100609.83;79555;1301;3011402;-71
2024/02/17 03:49:12;;;;;;;12.50;6.30;;;;;;;-2.87;70.57;100605.31;78939;1298;3013298;-71
2024/02/17 03:51:39;;;;;;;19.00;5.80;;;;;;;-2.94;70.97;100606.09;79459;1298;3013383;-72
2024/02/17 03:54:06;;;;;;;16.00;6.50;;;;;;;-2.88;71.29;100603.41;79584;1294;3011943;-72
2024/02/17 03:56:33;;;;;;;18.50;5.40;;;;;;;-2.88;71.45;100601.35;78222;1295;3025913;-70
2024/02/17 03:59:01;;;;;;;9.50;4.60;;;;;;;-2.92;71.58;100607.98;79551;1301;3012791;-71
2024/02/17 04:01:34;;;;;;;16.60;5.50;;;;;;;-3.02;71.49;100604.95;79460;1300;3011633;-68
2024/02/17 04:04:03;;;;;;;13.10;5.90;;;;;;;-3.09;71.71;100609.14;78160;1296;3051931;-71
2024/02/17 04:06:30;;;;;;;13.40;5.10;;;;;;;-3.10;71.50;100612.73;79541;1304;3013145;-71
2024/02/17 04:08:57;;;;;;;14.30;5.40;;;;;;;-2.98;71.09;100613.40;79411;1300;3013149;-65
2024/02/17 04:11:26;;;;;;;14.80;5.30;;;;;;;-3.08;70.77;100612.41;78180;1301;3050761;-67
2024/02/17 04:13:56;;;;;;;13.50;5.40;;;;;;;-3.23;70.97;100612.21;79475;1301;3013171;-68
2024/02/17 04:16:23;;;;;;;11.20;5.20;;;;;;;-3.25;71.40;100614.58;78227;1300;3069438;-68
2024/02/17 04:18:50;;;;;;;12.20;5.00;;;;;;;-3.22;71.37;100614.45;79410;1296;3018383;-68
2024/02/17 04:21:17;;;;;;;13.00;5.20;;;;;;;-3.18;71.59;100611.92;79436;1300;3011681;-72
2024/02/17 04:23:44;;;;;;;15.00;5.40;;;;;;;-3.24;71.89;100618.35;78166;1298;3025998;-67
2024/02/17 04:26:11;;;;;;;11.60;5.10;;;;;;;-3.32;71.47;100617.73;79431;1300;3018587;-69
2024/02/17 04:28:40;;;;;;;15.70;5.90;;;;;;;-3.35;71.45;100619.06;79449;1310;3011554;-71
2024/02/17 04:31:08;;;;;;;10.40;5.00;;;;;;;-3.50;71.37;100624.32;78191;1301;3068872;-69
2024/02/17 04:33:37;;;;;;;12.50;5.40;;;;;;;-3.50;71.74;100628.79;79450;1301;3013537;-67
2024/02/17 04:36:05;;;;;;;13.40;5.10;;;;;;;-3.51;71.90;100629.97;79444;1300;3011756;-68
2024/02/17 04:38:33;;;;;;;11.90;4.80;;;;;;;-3.50;72.08;100636.83;78187;1300;3053537;-69
2024/02/17 04:41:00;;;;;;;11.70;4.90;;;;;;;-3.48;71.68;100640.29;79455;1300;3012687;-70
2024/02/17 04:43:26;;;;;;;12.50;4.90;;;;;;;-3.46;71.45;100639.98;79522;1300;3013484;-69
2024/02/17 04:45:54;;;;;;;17.20;4.70;;;;;;;-3.44;71.33;100639.33;78324;1298;3026641;-70
2024/02/17 04:48:21;;;;;;;11.00;5.10;;;;;;;-3.52;71.43;100640.39;79520;1297;3013368;-68
2024/02/17 04:50:47;;;;;;;13.70;5.80;;;;;;;-3.47;71.45;100640.64;79708;1295;3011311;-67
2024/02/17 04:53:15;;;;;;;11.90;5.90;;;;;;;-3.54;71.74;100646.37;78132;1303;3026540;-68
2024/02/17 04:55:42;;;;;;;10.40;5.20;;;;;;;-3.55;72.27;100652.68;79509;1300;3018402;-71
2024/02/17 04:58:08;;;;;;;13.20;5.30;;;;;;;-3.53;72.12;100656.98;79584;1300;3012009;-70
2024/02/17 05:00:36;;;;;;;9.50;4.80;;;;;;;-3.66;72.51;100665.52;78294;1295;3026884;-69
2024/02/17 05:03:04;;;;;;;13.20;5.10;;;;;;;-3.41;72.45;100673.63;79444;1299;3018516;-71
2024/02/17 05:05:31;;;;;;;14.80;5.60;;;;;;;-3.28;71.50;100678.11;79502;1296;3011938;-72
2024/02/17 05:07:59;;;;;;;14.70;5.30;;;;;;;-3.27;70.94;100686.36;78355;1296;3053974;-69
2024/02/17 05:10:26;;;;;;;10.50;4.60;;;;;;;-3.14;70.61;100690.31;79483;1302;3012990;-69
2024/02/17 05:12:52;;;;;;;12.40;5.50;;;;;;;-3.11;70.00;100691.23;79485;1301;3013038;-73
2024/02/17 05:15:20;;;;;;;12.50;5.20;;;;;;;-3.09;69.67;100688.86;78617;1296;3027019;-69
2024/02/17 05:17:47;;;;;;;12.20;4.60;;;;;;;-3.16;69.59;100685.83;79590;1299;3013631;-74
2024/02/17 05:20:14;;;;;;;13.30;5.30;;;;;;;-3.09;69.26;100685.08;79468;1297;3011790;-69
2024/02/17 05:22:43;;;;;;;16.00;5.70;;;;;;;-3.14;68.68;100681.92;78113;1298;3053238;-67
2024/02/17 05:25:10;;;;;;;15.10;5.40;;;;;;;-3.07;68.79;100678.09;79559;1300;3012944;-70
2024/02/17 05:27:36;;;;;;;13.00;5.80;;;;;;;-3.13;68.65;100671.66;79772;1299;3011466;-69
2024/02/17 05:30:05;;;;;;;12.00;5.20;;;;;;;-3.24;69.06;100669.44;78243;1300;3067128;-74
2024/02/17 05:32:32;;;;;;;10.90;4.90;;;;;;;-3.28;69.10;100663.71;79479;1303;3013362;-71
2024/02/17 05:34:58;;;;;;;17.80;5.70;;;;;;;-3.33;69.27;100659.87;79457;1295;3011638;-73
2024/02/17 05:37:26;;;;;;;12.90;4.80;;;;;;;-3.29;69.01;100657.36;78304;1296;3053006;-72
2024/02/17 05:39:54;;;;;;;12.60;5.50;;;;;;;-3.43;69.07;100655.78;79566;1299;3019361;-70
2024/02/17 05:42:21;;;;;;;14.00;5.60;;;;;;;-3.50;69.05;100654.30;79581;1302;3011801;-69
2024/02/17 05:44:49;;;;;;;13.10;5.00;;;;;;;-3.51;68.80;100655.32;78876;1299;3069963;-71
2024/02/17 05:47:15;;;;;;;10.70;5.50;;;;;;;-3.56;68.92;100656.44;79470;1296;3018599;-72
2024/02/17 05:49:42;;;;;;;10.00;5.10;;;;;;;-3.56;69.30;100657.98;79388;1297;3011651;-67
2024/02/17 05:52:10;;;;;;;23.80;5.20;;;;;;;-3.38;69.02;100656.02;78424;1300;3026506;-66
2024/02/17 05:54:37;;;;;;;13.90;5.80;;;;;;;-3.30;68.78;100659.73;79513;1311;3013074;-70
2024/02/17 05:57:03;;;;;;;13.80;5.10;;;;;;;-3.34;68.45;100655.75;79400;1300;3011618;-70
2024/02/17 05:59:31;;;;;;;15.20;5.80;;;;;;;-3.40;68.46;100659.25;78254;1298;3026474;-69
2024/02/17 06:01:58;;;;;;;15.90;5.40;;;;;;;-3.47;68.53;100663.77;79601;1299;3015025;-74
2024/02/17 06:04:25;;;;;;;14.50;5.80;;;;;;;-3.25;68.25;100670.45;79503;1300;3011888;-70
2024/02/17 06:06:52;;;;;;;14.30;5.90;;;;;;;-3.33;68.05;100672.89;78340;1302;3025877;-71
2024/02/17 06:09:20;;;;;;;10.00;5.70;;;;;;;-3.35;68.22;100674.23;79516;1300;3013038;-68
2024/02/17 06:11:48;;;;;;;12.30;4.90;;;;;;;-3.28;67.94;100670.73;79524;1301;3012177;-71
2024/02/17 06:14:16;;;;;;;10.80;5.40;;;;;;;-3.17;67.87;100676.21;78294;1300;3068947;-67
2024/02/17 06:16:43;;;;;;;15.30;6.00;;;;;;;-3.12;67.68;100678.34;79548;1296;3019029;-69
2024/02/17 06:21:56;;;;;;;;;;;;;;;-3.13;67.53;100685.02;78417;1297;3053117;-68
2024/02/17 06:24:23;;;;;;;12.50;5.00;;;;;;;-3.12;67.71;100688.46;79535;1311;3013787;-73
2024/02/17 06:26:49;;;;;;;14.90;5.60;;;;;;;-2.96;67.61;100691.27;79575;1301;3011851;-72
2024/02/17 06:29:17;;;;;;;14.20;4.90;;;;;;;-2.98;67.32;100692.61;78282;1296;3026651;-70
2024/02/17 06:31:45;;;;;;;11.80;5.60;;;;;;;-2.87;67.28;100695.84;79555;1300;3018410;-74
2024/02/17 06:34:11;;;;;;;17.70;6.20;;;;;;;-2.80;66.85;100694.55;79513;1300;3012095;-71
2024/02/17 06:36:42;;;;;;;18.20;5.60;;;;;;;-2.76;66.87;100697.02;78329;1299;3053154;-68
2024/02/17 06:39:09;;;;;;;9.80;4.70;;;;;;;-2.51;66.65;100697.33;79614;1295;3012689;-68
2024/02/17 06:41:38;;;;;;;13.50;5.40;;;;;;;-2.38;65.86;100698.38;79022;1300;3011672;-76
2024/02/17 06:44:04;;;;;;;13.10;5.80;;;;;;;-2.57;65.87;100702.42;79566;1298;3013522;-71
2024/02/17 06:46:31;;;;;;;19.00;6.20;;;;;;;-2.40;65.91;100699.70;79479;1299;3011965;-69
2024/02/17 06:49:01;;;;;;;16.70;5.20;;;;;;;-2.22;65.30;100698.20;78511;1300;3056078;-66
2024/02/17 06:51:27;;;;;;;15.80;5.90;;;;;;;-2.28;64.81;100698.47;79573;1296;3013411;-76
2024/02/17 06:53:54;;;;;;;17.20;5.60;;;;;;;-2.27;64.66;100698.48;79508;1301;3012290;-72
2024/02/17 06:56:22;;;;;;;13.10;4.70;;;;;;;-2.33;64.58;100696.54;78556;1297;3051029;-64
2024/02/17 06:58:49;;;;;;;13.60;5.30;;;;;;;-2.30;64.18;100698.29;80332;1295;3012994;-73
2024/02/17 07:01:16;;;;;;;13.30;5.20;;;;;;;-2.24;64.40;100688.73;80012;1300;3011840;-67
2024/02/17 07:03:44;;;;;;;12.80;5.00;;;;;;;-2.17;63.99;100686.93;79197;1295;3026098;-67
2024/02/17 07:06:16;;;;;;;13.20;5.30;;;;;;;-2.20;64.16;100687.07;80610;1298;3013145;-67
2024/02/17 07:08:48;;;;;;;11.30;5.40;;;;;;;-2.11;64.00;100684.95;79517;1295;3049563;-64
2024/02/17 07:11:15;;;;;;;10.10;5.00;;;;;;;-1.94;63.64;100683.56;79957;1298;3011655;-65
2024/02/17 07:13:43;;;;;;;11.70;5.30;;;;;;;-1.98;63.53;100684.20;79333;1300;3026109;-65
2024/02/17 07:16:10;;;;;;;10.30;5.00;;;;;;;-1.83;63.66;100685.39;80594;1297;3018694;-70
2024/02/17 07:18:41;;;;;;;13.00;5.60;;;;;;;-1.90;63.40;100681.54;80586;1295;3011733;-68
2024/02/17 07:21:09;;;;;;;16.30;5.60;;;;;;;-1.82;63.57;100675.94;79078;1300;3046769;-70
2024/02/17 07:23:36;;;;;;;20.60;6.40;;;;;;;-1.77;63.31;100676.85;79799;1296;3012821;-65
2024/02/17 07:26:03;;;;;;;12.10;5.00;;;;;;;-1.79;62.90;100675.45;79676;1301;3011642;-66
2024/02/17 07:28:36;;;;;;;15.20;5.90;;;;;;;-1.77;62.81;100671.88;78457;1300;3028330;-73
2024/02/17 07:31:02;;;;;;;17.80;5.80;;;;;;;-1.82;62.81;100674.58;79813;1295;3013401;-73
2024/02/17 07:33:30;;;;;;;13.10;5.30;;;;;;;-1.66;62.78;100673.35;80716;1295;3051579;-72
2024/02/17 07:35:57;;;;;;;13.80;5.70;;;;;;;-1.51;62.16;100676.05;81999;1294;3012655;-70
2024/02/17 07:38:25;;;;;;;15.10;5.60;;;;;;;-1.36;61.96;100671.52;81970;1295;3011030;-72
2024/02/17 07:40:54;;;;;;;18.00;6.10;;;;;;;-1.37;61.66;100670.13;80672;1295;3049022;-70
2024/02/17 07:43:20;;;;;;;15.40;4.70;;;;;;;-1.38;61.85;100668.92;81918;1296;3011335;-76
2024/02/17 07:45:49;;;;;;;17.30;5.10;;;;;;;-1.20;61.22;100670.27;81966;1296;3011304;-69
2024/02/17 07:48:18;;;;;;;13.30;5.30;;;;;;;-1.13;60.93;100670.30;80712;1296;3051380;-73
2024/02/17 07:50:45;;;;;;;11.30;5.20;;;;;;;-1.01;61.04;100669.86;81978;1296;3013321;-72
2024/02/17 07:53:11;;;;;;;17.40;5.40;;;;;;;-0.86;60.74;100667.71;81966;1295;3011111;-74
2024/02/17 07:55:40;;;;;;;17.40;5.30;;;;;;;-0.84;60.04;100671.69;80684;1295;3050601;-74
2024/02/17 07:58:08;;;;;;;17.20;5.30;;;;;;;-0.86;59.84;100662.89;81994;1297;3012880;-74
2024/02/17 08:00:35;;;;;;;13.90;4.80;;;;;;;-0.78;59.63;100667.23;81942;1297;3011059;-76
2024/02/17 08:03:04;;;;;;;15.00;5.50;;;;;;;-0.71;60.03;100669.15;80719;1296;3050657;-72
2024/02/17 08:05:31;;;;;;;13.70;5.50;;;;;;;-0.73;59.83;100669.50;81966;1295;3012799;-71
2024/02/17 08:07:58;;;;;;;13.10;4.60;;;;;;;-0.59;60.05;100665.95;81947;1296;3011301;-75
2024/02/17 08:10:25;;;;;;;20.70;4.90;;;;;;;-0.46;59.43;100663.58;80684;1296;3048944;-73
2024/02/17 08:12:52;;;;;;;21.10;5.20;;;;;;;-0.46;59.15;100664.27;81981;1296;3013032;-73
2024/02/17 08:15:19;;;;;;;12.20;4.40;;;;;;;-0.36;59.17;100659.67;81984;1297;3011167;-72
2024/02/17 08:17:47;;;;;;;13.10;4.80;;;;;;;-0.28;58.90;100659.34;80761;1296;3026035;-67
2024/02/17 08:20:13;;;;;;;15.60;4.60;;;;;;;-0.25;58.71;100662.96;82034;1295;3017967;-69
2024/02/17 08:22:40;;;;;;;13.40;4.70;;;;;;;-0.21;58.73;100659.38;82047;1296;3011208;-68
2024/02/17 08:25:09;;;;;;;13.80;5.20;;;;;;;-0.19;58.43;100663.33;80766;1296;3025896;-71
2024/02/17 08:27:36;;;;;;;13.00;5.40;;;;;;;-0.10;57.97;100666.11;82064;1295;3011112;-68
2024/02/17 08:30:04;;;;;;;13.20;4.90;;;;;;;-0.03;58.28;100663.71;82031;1297;3011163;-69
2024/02/17 08:32:33;;;;;;;19.60;5.20;;;;;;;0.04;57.94;100662.00;80702;1296;3050478;-65
2024/02/17 08:35:00;;;;;;;18.00;4.90;;;;;;;0.22;57.67;100657.19;81985;1296;3013170;-70
2024/02/17 08:37:27;;;;;;;16.20;5.20;;;;;;;0.25;57.56;100658.58;82028;1295;3011061;-73
2024/02/17 08:39:55;;;;;;;15.80;4.70;;;;;;;0.23;57.53;100655.99;80824;1294;3050585;-69
2024/02/17 08:42:22;;;;;;;16.30;4.90;;;;;;;0.30;57.29;100654.79;82076;1298;3012840;-73
2024/02/17 08:44:52;;;;;;;12.50;5.00;;;;;;;0.53;56.67;100651.86;82062;1294;3011360;-72
2024/02/17 08:47:21;;;;;;;11.90;4.50;;;;;;;0.65;57.00;100654.09;80821;1293;3051805;-72
2024/02/17 08:49:48;;;;;;;20.60;5.10;;;;;;;0.77;56.47;100651.66;82080;1294;3011203;-66
2024/02/17 08:52:15;;;;;;;14.50;5.00;;;;;;;0.83;56.05;100653.55;82066;1297;3011427;-73
2024/02/17 08:54:43;;;;;;;17.40;4.60;;;;;;;0.78;56.22;100647.87;80782;1294;3049439;-74
2024/02/17 08:57:10;;;;;;;28.40;5.90;;;;;;;0.88;56.40;100643.88;82091;1298;3012359;-71
2024/02/17 08:59:37;;;;;;;14.90;4.70;;;;;;;0.86;56.06;100650.96;82047;1298;3011441;-66
2024/02/17 09:02:05;;;;;;;17.60;5.10;;;;;;;0.99;56.00;100645.92;80772;1296;3026783;-69
2024/02/17 09:04:31;;;;;;;21.70;5.60;;;;;;;1.06;55.78;100645.05;82027;1294;3013024;-69
2024/02/17 09:06:59;;;;;;;14.70;5.30;;;;;;;0.95;55.68;100645.42;82029;1294;3011328;-73
2024/02/17 09:09:30;;;;;;;14.20;4.70;;;;;;;1.07;55.55;100647.45;80745;1294;3048082;-71
2024/02/17 09:11:57;;;;;;;15.20;5.10;;;;;;;1.20;55.25;100642.95;82029;1297;3011433;-72
2024/02/17 09:14:28;;;;;;;14.30;4.50;;;;;;;1.31;55.32;100639.96;81552;1294;3011394;-70
2024/02/17 09:16:55;;;;;;;18.50;4.90;;;;;;;1.20;55.30;100640.18;82059;1294;3011422;-75
2024/02/17 09:19:24;;;;;;;21.10;5.60;;;;;;;1.15;55.42;100639.84;81561;1294;3010968;-68
2024/02/17 09:21:55;;;;;;;11.70;4.60;;;;;;;1.34;55.55;100643.92;82084;1294;3018182;-75
2024/02/17 09:24:25;;;;;;;19.20;5.00;;;;;;;1.50;55.28;100640.05;80810;1294;3051055;-73
2024/02/17 09:26:55;;;;;;;16.60;4.80;;;;;;;1.70;54.51;100642.02;82065;1294;3013241;-72
2024/02/17 09:29:22;;;;;;;17.60;4.80;;;;;;;1.90;54.29;100641.23;80799;1295;3052502;-66
2024/02/17 09:31:49;;;;;;;12.90;4.70;;;;;;;1.90;53.69;100638.63;82067;1295;3013264;-71
2024/02/17 09:34:16;;;;;;;18.30;4.80;;;;;;;2.04;53.85;100633.70;82022;1295;3011362;-75
2024/02/17 09:36:44;;;;;;;12.40;4.50;;;;;;;2.06;53.67;100633.86;80795;1294;3025986;-72
2024/02/17 09:39:10;;;;;;;12.70;4.70;;;;;;;2.20;53.98;100633.08;82070;1294;3018092;-70
2024/02/17 09:41:37;;;;;;;18.00;5.50;;;;;;;2.30;53.25;100626.41;82044;1295;3011293;-73
2024/02/17 09:44:06;;;;;;;16.00;5.30;;;;;;;2.38;53.38;100630.17;80802;1298;3025922;-72
2024/02/17 09:46:32;;;;;;;18.10;5.50;;;;;;;2.32;53.13;100631.07;82089;1294;3012632;-71
2024/02/17 09:48:59;;;;;;;18.10;5.00;;;;;;;2.38;52.94;100627.73;82019;1294;3011318;-73
2024/02/17 09:51:30;;;;;;;13.10;4.60;;;;;;;2.26;52.72;100623.00;80794;1294;3056463;-71
2024/02/17 09:53:57;;;;;;;18.90;4.80;;;;;;;2.40;53.05;100623.05;82077;1294;3011185;-72
2024/02/17 09:56:26;;;;;;;9.00;4.50;;;;;;;2.37;53.04;100621.52;81587;1294;3011231;-71
2024/02/17 09:58:53;;;;;;;14.10;5.20;;;;;;;2.54;52.55;100619.98;82099;1300;3012835;-77
2024/02/17 10:01:23;;;;;;;23.00;4.80;;;;;;;2.60;52.60;100618.71;82062;1294;3011382;-77
2024/02/17 10:03:51;;;;;;;18.20;5.10;;;;;;;2.76;52.75;100616.84;80801;1294;3067823;-71
2024/02/17 10:06:17;;;;;;;12.00;5.40;;;;;;;2.83;52.06;100614.00;81998;1294;3011412;-73
2024/02/17 10:08:45;;;;;;;21.80;5.90;;;;;;;2.81;52.29;100610.38;82057;1294;3011451;-69
2024/02/17 10:11:13;;;;;;;15.10;5.30;;;;;;;2.83;52.10;100604.99;80829;1294;3027293;-72
2024/02/17 10:13:41;;;;;;;17.80;5.50;;;;;;;2.82;52.01;100601.20;82118;1294;3018266;-66
2024/02/17 10:16:12;;;;;;;13.70;4.90;;;;;;;2.70;52.53;100600.63;82113;1294;3011148;-70
2024/02/17 10:18:41;;;;;;;15.50;4.90;;;;;;;2.76;52.13;100601.27;80821;1294;3069034;-74
2024/02/17 10:21:08;;;;;;;17.80;4.80;;;;;;;2.85;52.04;100597.53;82124;1294;3012558;-68
2024/02/17 10:23:35;;;;;;;18.60;5.80;;;;;;;2.99;51.84;100592.70;81835;1294;3010847;-71
2024/02/17 10:26:03;;;;;;;14.90;4.70;;;;;;;3.10;52.12;100583.59;80854;1294;3052008;-70
2024/02/17 10:28:29;;;;;;;10.70;5.00;;;;;;;3.28;51.61;100580.59;82121;1294;3018107;-74
2024/02/17 10:30:56;;;;;;;13.40;5.40;;;;;;;3.29;51.75;100576.60;82064;1294;3011230;-71
2024/02/17 10:33:24;;;;;;;15.50;5.40;;;;;;;3.36;51.64;100577.18;80804;1294;3025962;-73
2024/02/17 10:35:51;;;;;;;14.40;4.80;;;;;;;3.29;51.37;100572.78;82083;1294;3013166;-75
2024/02/17 10:38:17;;;;;;;16.00;4.50;;;;;;;3.35;51.35;100571.66;82115;1294;3011228;-70
2024/02/17 10:40:45;;;;;;;13.40;5.20;;;;;;;3.43;51.30;100571.55;80753;1294;3026456;-73
2024/02/17 10:43:12;;;;;;;15.90;4.40;;;;;;;3.46;51.14;100567.54;82118;1294;3012722;-68
2024/02/17 10:45:38;;;;;;;27.40;5.50;;;;;;;3.63;51.27;100568.69;82070;1295;3011368;-66
2024/02/17 10:48:10;;;;;;;17.00;5.00;;;;;;;3.70;51.08;100569.11;80850;1294;3025732;-68
2024/02/17 10:50:41;;;;;;;18.00;4.70;;;;;;;3.71;51.08;100568.73;82134;1294;3011325;-69
2024/02/17 10:53:16;;;;;;;15.20;4.20;;;;;;;3.83;50.68;100569.06;80856;1294;3057856;-68
2024/02/17 10:55:46;;;;;;;12.50;4.30;;;;;;;4.01;50.29;100565.15;81561;1294;3011279;-71
2024/02/17 10:58:15;;;;;;;21.50;4.60;;;;;;;3.90;50.54;100563.77;82144;1294;3013308;-65
2024/02/17 11:00:45;;;;;;;14.70;5.20;;;;;;;4.01;50.71;100563.77;81568;1294;3011184;-69
2024/02/17 11:03:14;;;;;;;15.50;4.10;;;;;;;4.11;50.94;100563.10;82057;1294;3012854;-72
2024/02/17 11:05:43;;;;;;;14.90;4.00;;;;;;;4.15;50.14;100562.69;80767;1299;3051326;-69
2024/02/17 11:08:10;;;;;;;10.70;4.20;;;;;;;4.18;50.02;100566.96;82092;1297;3012635;-70